Latest Weather Observations for Batchelor

IDD60801

Issued at 6:01 pm CST Thursday 30 March 2017 (issued every 30 minutes, with the page automatically refreshed every 10 minutes)

About weather observations | Map of weather stations | Latest weather observations for NT | Other Formats
Station Details ID: 014272 Name: BATCHELOR AIRPORT Lat: -13.05 Lon: 131.03 Height: 104.0 m
Data from the previous 72 hours. | See also: Recent months at Batchelor
Date/Time
CST
Temp
°C
App
Temp
°C
Dew
Point
°C
Rel
Hum
%
Delta-T
°C
Wind Press
QNH
hPa
Press
MSL
hPa
Rain since
9am
mm
Dir  Spd
km/h
Gust
km/h
Spd
kts
Gust
kts
30/06:00pm 26.2 27.7 21.2 74 3.3 NNE 15 13 8 7 - 1007.0 -
30/05:57pm 27.0 28.6 20.8 69 4.1 N 13 24 7 13 1007.7 1007.0 0.0
30/05:30pm 32.4 37.2 24.2 62 5.8 WSW 6 9 3 5 1007.1 1006.4 0.0
30/05:00pm 32.9 38.0 24.1 60 6.2 NW 4 6 2 3 1007.1 1006.4 0.0
30/04:30pm 33.6 38.1 23.6 56 7.0 W 6 11 3 6 1007.1 1006.4 0.0
30/04:00pm 33.3 38.2 23.6 56 6.8 S 4 7 2 4 1007.4 1006.7 0.0
30/03:30pm 34.0 38.7 24.0 56 7.0 SW 6 13 3 7 1007.5 1006.8 0.0
30/03:00pm 32.9 37.7 24.4 61 6.0 SW 7 13 4 7 1007.8 1007.1 0.0
30/02:30pm 33.2 37.3 23.2 55 7.0 W 7 11 4 6 1008.1 1007.4 0.0
30/02:00pm 32.7 36.4 23.3 57 6.5 W 9 15 5 8 1008.5 1007.8 0.0
30/01:30pm 32.7 36.1 23.3 57 6.5 WSW 11 17 6 9 1008.8 1008.1 0.0
30/01:00pm 31.8 35.8 23.1 60 6.0 WSW 7 15 4 8 1009.3 1008.6 0.0
30/12:30pm 31.8 36.9 24.7 66 5.0 WNW 6 9 3 5 1009.9 1009.2 0.0
30/12:00pm 31.3 36.1 24.2 66 5.0 W 6 9 3 5 1010.4 1009.7 0.0
30/11:30am 30.5 34.7 23.2 65 5.0 WSW 6 9 3 5 1010.7 1010.0 0.0
30/11:00am 29.7 33.3 22.4 65 5.0 W 7 13 4 7 1011.0 1010.3 0.0
30/10:30am 28.7 32.2 22.9 71 4.0 W 9 13 5 7 1011.2 1010.5 0.0
30/10:00am 27.6 31.2 23.0 76 3.1 W 9 13 5 7 1011.4 1010.7 0.0
30/09:30am 26.5 30.6 23.2 82 2.3 WNW 7 13 4 7 1011.1 1010.4 0.0
30/09:00am 25.5 28.9 22.0 81 2.3 W 7 13 4 7 1010.9 1010.2 0.0
30/08:30am 25.2 28.9 22.3 84 2.0 NW 6 11 3 6 1010.3 1009.6 0.0
30/08:00am 23.1 27.4 21.9 93 0.8 E 2 6 1 3 1010.2 1009.5 0.0
30/07:30am 22.9 27.5 21.7 93 0.8 CALM 0 6 0 3 1009.9 1009.2 0.0
30/07:00am 22.4 25.7 21.4 94 0.7 WSW 6 9 3 5 1009.7 1009.0 0.0
30/06:30am 22.3 25.0 21.3 94 0.7 W 9 13 5 7 1009.3 1008.6 0.0
30/06:00am 22.2 26.3 21.5 96 0.5 W 2 6 1 3 1009.8 1009.1 0.0
30/05:30am 22.1 25.2 21.4 96 0.5 WSW 7 11 4 6 1009.8 1009.1 0.0
30/05:00am 22.1 25.3 21.3 95 0.5 W 6 7 3 4 1009.3 1008.6 0.0
30/04:30am 22.1 25.1 20.9 93 0.8 NE 6 7 3 4 1009.1 1008.4 0.0
30/04:00am 22.1 25.3 21.3 95 0.5 NNE 6 7 3 4 1009.3 1008.6 0.0
30/03:30am 22.2 25.8 21.2 94 0.7 SSE 4 6 2 3 1010.7 1010.0 0.0
30/03:00am 22.1 24.8 20.7 92 0.9 SE 7 11 4 6 1011.4 1010.7 0.0
30/02:30am 22.8 22.5 20.3 86 1.6 E 22 33 12 18 1012.0 1011.3 0.0
30/02:14am 23.9 22.1 20.4 81 2.3 E 30 50 16 27 1011.9 1011.2 0.0
30/02:00am 24.3 24.8 22.0 87 1.5 E 22 44 12 24 1012.0 1011.3 0.0
30/01:52am 24.0 23.5 22.1 89 1.3 E 28 44 15 24 1011.7 1011.0 0.0
30/01:30am 23.8 27.1 21.9 89 1.3 ENE 7 11 4 6 1010.3 1009.6 0.0
30/01:00am 23.9 28.6 22.7 93 0.8 ENE 2 4 1 2 1010.2 1009.5 0.0
30/12:30am 23.8 28.2 22.1 90 1.1 ENE 2 4 1 2 1010.2 1009.5 0.0
30/12:00am 23.8 28.1 21.9 89 1.3 W 2 6 1 3 1010.1 1009.4 0.0
 
Date/Time
CST
Temp
°C
App
Temp
°C
Dew
Point
°C
Rel
Hum
%
Delta-T
°C
Wind Press
QNH
hPa
Press
MSL
hPa
Rain since
9am
mm
Dir  Spd
km/h
Gust
km/h
Spd
kts
Gust
kts
29/11:30pm 23.5 27.4 21.8 90 1.1 W 4 6 2 3 1009.6 1008.9 0.0
29/11:00pm 23.3 26.6 21.4 89 1.3 WNW 6 7 3 4 1009.2 1008.5 0.0
29/10:30pm 23.4 26.6 21.3 88 1.4 W 6 9 3 5 1009.0 1008.3 0.0
29/10:00pm 23.7 26.8 21.0 85 1.8 WNW 6 13 3 7 1010.7 1010.0 0.0
29/09:30pm 24.5 27.3 20.8 80 2.4 N 7 13 4 7 1011.2 1010.5 0.0
29/09:00pm 24.4 25.6 20.7 80 2.4 NE 15 26 8 14 1011.4 1010.7 0.0
29/08:39pm 25.4 24.8 21.3 78 2.7 E 26 52 14 28 1011.1 1010.4 0.0
29/08:36pm 26.0 27.0 21.7 77 2.9 ENE 19 52 10 28 1011.2 1010.5 0.0
29/08:30pm 26.8 32.8 24.8 89 1.4 WSW 2 11 1 6 1010.7 1010.0 0.0
29/08:00pm 26.5 31.7 24.2 87 1.6 WSW 4 6 2 3 1009.3 1008.6 0.0
29/07:30pm 26.8 31.9 24.1 85 1.9 W 4 9 2 5 1008.6 1007.9 0.0
29/07:00pm 26.5 31.1 23.8 85 1.9 W 6 7 3 4 1008.0 1007.3 0.0
29/06:30pm 26.4 31.3 23.7 85 1.9 WSW 4 7 2 4 1007.9 1007.2 0.0
29/06:00pm 26.5 30.6 23.2 82 2.3 NW 7 11 4 6 1007.2 1006.5 0.0
29/05:30pm 26.9 31.1 23.2 80 2.5 WNW 6 7 3 4 1006.7 1006.0 0.0
29/05:00pm 26.6 30.8 23.5 83 2.1 WNW 7 13 4 7 1006.7 1006.0 0.0
29/04:30pm 26.6 30.1 23.5 83 2.1 WNW 11 17 6 9 1006.7 1006.0 0.0
29/04:00pm 26.4 30.3 22.9 81 2.4 W 7 19 4 10 1006.1 1005.3 0.0
29/03:30pm 25.3 27.6 22.0 82 2.2 N 13 22 7 12 1006.6 1005.9 0.0
29/03:11pm 26.2 27.4 22.1 78 2.8 SSE 19 30 10 16 1007.6 1006.9 0.0
29/03:00pm 31.4 35.4 25.0 69 4.5 WNW 13 19 7 10 1007.1 1006.4 0.0
29/02:30pm 33.3 37.7 25.0 61 5.9 WNW 11 20 6 11 1007.2 1006.5 0.0
29/02:00pm 32.8 36.7 24.3 61 6.0 W 11 17 6 9 1007.7 1007.0 0.0
29/01:30pm 33.4 37.6 24.8 60 6.1 WNW 11 22 6 12 1008.0 1007.3 0.0
29/01:00pm 32.4 36.5 23.9 61 5.9 WSW 9 17 5 9 1008.3 1007.6 0.0
29/12:30pm 33.1 37.9 25.1 63 5.7 WSW 9 19 5 10 1008.5 1007.8 0.0
29/12:00pm 32.0 35.8 24.1 63 5.5 W 11 17 6 9 1008.9 1008.2 0.0
29/11:30am 31.6 35.5 24.2 65 5.2 W 11 19 6 10 1009.2 1008.5 0.0
29/11:00am 30.9 34.8 24.8 70 4.3 W 13 20 7 11 1009.6 1008.9 0.0
29/10:30am 29.9 33.5 24.3 72 3.9 WSW 13 20 7 11 1009.8 1009.1 0.0
29/10:00am 30.1 34.2 25.2 75 3.5 W 13 22 7 12 1009.9 1009.2 0.0
29/09:30am 30.2 35.0 25.7 77 3.2 W 11 20 6 11 1009.7 1009.0 0.0
29/09:00am 28.9 33.2 25.5 82 2.4 W 13 24 7 13 1009.7 1009.0 0.0
29/08:30am 28.3 32.7 25.7 86 1.8 WNW 13 20 7 11 1009.7 1009.0 0.0
29/08:00am 27.0 32.6 25.8 93 0.8 WNW 7 11 4 6 1009.5 1008.8 0.0
29/07:30am 26.7 32.3 25.7 94 0.7 W 7 11 4 6 1009.2 1008.5 0.0
29/07:00am 26.4 32.2 25.7 96 0.5 W 6 9 3 5 1008.9 1008.2 0.0
29/06:30am 26.3 31.8 25.6 96 0.5 W 7 9 4 5 1008.7 1008.0 0.0
29/06:00am 26.3 31.8 25.6 96 0.5 WNW 7 11 4 6 1008.5 1007.8 0.0
29/05:30am 26.3 32.0 25.6 96 0.5 W 6 9 3 5 1008.5 1007.8 0.0
29/05:00am 26.4 31.8 25.5 95 0.6 WNW 7 11 4 6 1008.5 1007.8 0.0
29/04:30am 26.4 32.0 25.5 95 0.6 WNW 6 9 3 5 1008.5 1007.8 0.0
29/04:00am 26.2 32.2 25.5 96 0.5 WNW 4 6 2 3 1008.3 1007.6 0.0
29/03:30am 26.0 32.3 25.3 96 0.5 W 2 4 1 2 1008.1 1007.4 0.0
29/03:00am 26.1 32.3 25.2 95 0.6 SW 2 6 1 3 1008.3 1007.6 0.0
29/02:30am 26.4 32.0 25.5 95 0.6 W 6 9 3 5 1008.3 1007.6 0.0
29/02:00am 26.2 32.2 25.5 96 0.5 W 4 6 2 3 1008.3 1007.6 0.0
29/01:30am 26.3 32.2 25.4 95 0.6 W 4 7 2 4 1008.6 1007.9 0.0
29/01:00am 26.3 32.2 25.3 94 0.7 W 4 6 2 3 1009.0 1008.3 0.0
29/12:30am 26.5 32.8 25.3 93 0.8 W 2 6 1 3 1009.0 1008.3 0.0
29/12:00am 26.5 32.4 25.3 93 0.8 W 4 6 2 3 1008.8 1008.1 0.0
 
Date/Time
CST
Temp
°C
App
Temp
°C
Dew
Point
°C
Rel
Hum
%
Delta-T
°C
Wind Press
QNH
hPa
Press
MSL
hPa
Rain since
9am
mm
Dir  Spd
km/h
Gust
km/h
Spd
kts
Gust
kts
28/11:30pm 26.4 32.2 25.2 93 0.8 W 4 6 2 3 1008.9 1008.2 0.0
28/11:00pm 26.7 32.1 25.1 91 1.1 WSW 6 9 3 5 1009.0 1008.3 0.0
28/10:30pm 26.9 32.3 25.1 90 1.3 W 6 9 3 5 1009.1 1008.4 0.0
28/10:00pm 27.2 32.4 24.8 87 1.7 W 6 9 3 5 1009.2 1008.5 0.0
28/09:30pm 27.4 32.5 24.7 85 1.9 W 6 9 3 5 1009.3 1008.6 0.0
28/09:00pm 27.7 33.1 24.5 83 2.2 W 4 7 2 4 1009.3 1008.6 0.0
28/08:30pm 28.1 33.0 24.3 80 2.6 WSW 6 7 3 4 1009.2 1008.5 0.0
28/08:00pm 28.4 33.3 24.4 79 2.8 W 6 9 3 5 1008.5 1007.8 0.0
28/07:30pm 28.7 34.6 24.7 79 2.8 SW 2 4 1 2 1007.6 1006.9 0.0
28/07:00pm 29.7 35.0 24.3 73 3.8 WSW 4 7 2 4 1006.9 1006.2 0.0
28/06:30pm 31.0 36.1 24.6 68 4.5 W 6 9 3 5 1006.5 1005.8 0.0
28/06:00pm 31.7 35.5 24.0 63 5.4 WSW 11 19 6 10 1006.3 1005.5 0.0
28/05:30pm 32.7 36.9 24.7 62 5.7 WSW 11 17 6 9 1006.0 1005.2 0.0
28/05:00pm 33.2 37.6 24.4 60 6.2 W 9 15 5 8 1006.1 1005.3 0.0
28/04:30pm 33.5 37.9 24.4 59 6.4 W 9 13 5 7 1006.5 1005.8 0.0
28/04:00pm 33.1 37.6 24.6 61 6.0 W 9 17 5 9 1006.8 1006.1 0.0
28/03:30pm 32.6 37.0 23.8 59 6.2 SW 7 17 4 9 1007.1 1006.4 0.0
28/03:00pm 33.4 37.4 23.7 56 6.8 WSW 9 13 5 7 1007.3 1006.6 0.0
28/02:30pm 33.1 36.3 23.1 55 6.9 W 11 15 6 8 1007.8 1007.1 0.0
28/02:00pm 32.9 37.3 24.4 61 6.0 W 9 13 5 7 1008.2 1007.5 0.0
28/01:30pm 33.0 36.9 24.2 60 6.2 W 11 20 6 11 1008.6 1007.9 0.0
28/01:00pm 32.2 35.1 23.2 59 6.2 W 13 26 7 14 1008.9 1008.2 0.0
28/12:30pm 32.2 36.3 24.0 62 5.7 W 9 17 5 9 1009.5 1008.8 0.0
28/12:00pm 32.0 35.9 24.3 63 5.4 W 11 19 6 10 1010.0 1009.3 0.0
28/11:30am 31.4 34.8 24.0 65 5.2 WSW 13 24 7 13 1010.3 1009.6 0.0
28/11:00am 30.9 34.8 24.3 68 4.6 W 11 22 6 12 1010.7 1010.0 0.0
28/10:30am 30.0 33.9 24.2 71 4.1 WSW 11 19 6 10 1011.1 1010.4 0.0
28/10:00am 30.2 34.1 24.8 73 3.8 WNW 13 19 7 10 1011.1 1010.4 0.0
28/09:30am 28.8 33.0 24.8 79 2.8 W 11 19 6 10 1011.2 1010.5 0.0
28/09:00am 28.2 33.2 24.8 82 2.4 W 7 13 4 7 1011.2 1010.5 0.2
28/08:30am 27.2 32.4 24.8 87 1.7 W 6 7 3 4 1011.0 1010.3 0.2
28/08:00am 26.4 31.6 24.8 91 1.1 W 6 7 3 4 1010.6 1009.9 0.2
28/07:30am 25.5 31.7 24.6 95 0.6 CALM 0 0 0 0 1010.3 1009.6 0.2
28/07:00am 25.1 31.1 24.2 95 0.6 CALM 0 0 0 0 1009.9 1009.2 0.2
28/06:30am 25.4 30.4 24.5 95 0.6 WNW 6 7 3 4 1009.5 1008.8 0.2
28/06:00am 25.4 29.8 24.4 94 0.7 WNW 9 15 5 8 1009.3 1008.6 0.2
28/05:30am 25.3 30.2 24.4 95 0.6 WNW 6 9 3 5 1009.2 1008.5 0.2
28/05:00am 24.9 29.7 24.2 96 0.5 WNW 6 9 3 5 1009.2 1008.5 0.2
28/04:30am 24.9 30.1 24.2 96 0.5 W 4 6 2 3 1009.3 1008.6 0.2
28/04:00am 24.9 30.7 24.0 95 0.6 CALM 0 0 0 0 1009.2 1008.5 0.2
28/03:30am 25.0 30.5 24.1 95 0.6 W 2 2 1 1 1009.0 1008.3 0.2
28/03:00am 25.2 30.8 24.2 94 0.7 W 2 4 1 2 1009.1 1008.4 0.2
28/02:30am 25.1 30.4 24.4 96 0.5 WSW 4 6 2 3 1008.9 1008.2 0.2
28/02:00am 25.4 31.1 24.4 94 0.7 W 2 6 1 3 1009.0 1008.3 0.2
28/01:30am 25.3 30.9 24.3 94 0.7 NW 2 4 1 2 1009.3 1008.6 0.2
28/01:00am 25.6 31.6 24.2 92 1.0 CALM 0 0 0 0 1009.7 1009.0 0.2
28/12:30am 25.7 31.1 24.5 93 0.8 NW 4 6 2 3 1009.8 1009.1 0.2
28/12:00am 25.8 31.0 24.8 94 0.7 NW 6 7 3 4 1010.0 1009.3 0.2
 
Date/Time
CST
Temp
°C
App
Temp
°C
Dew
Point
°C
Rel
Hum
%
Delta-T
°C
Wind Press
QNH
hPa
Press
MSL
hPa
Rain since
9am
mm
Dir  Spd
km/h
Gust
km/h
Spd
kts
Gust
kts
27/11:30pm 25.9 31.0 24.7 93 0.8 WNW 6 7 3 4 1010.4 1009.7 0.2
27/11:00pm 26.1 32.4 24.7 92 1.0 CALM 0 0 0 0 1010.8 1010.1 0.2
27/10:30pm 26.1 32.0 24.7 92 1.0 WNW 2 4 1 2 1011.0 1010.3 0.2
27/10:00pm 26.2 32.4 24.6 91 1.1 CALM 0 0 0 0 1010.9 1010.2 0.2
27/09:30pm 26.3 32.4 24.5 90 1.3 CALM 0 0 0 0 1010.7 1010.0 0.2
27/09:00pm 26.3 31.7 24.5 90 1.3 WNW 4 4 2 2 1010.3 1009.6 0.2
27/08:30pm 26.5 32.3 24.5 89 1.4 WNW 2 4 1 2 1010.0 1009.3 0.2
27/08:00pm 26.5 32.5 24.3 88 1.5 CALM 0 2 0 1 1009.1 1008.4 0.2
27/07:30pm 26.5 31.7 24.2 87 1.6 WNW 4 6 2 3 1008.3 1007.6 0.2
27/07:00pm 26.9 31.5 23.8 83 2.1 WNW 6 6 3 3 1008.1 1007.4 0.2
27/06:30pm 27.5 32.3 24.1 82 2.4 WNW 6 9 3 5 1008.0 1007.3 0.2

Other Formats:

Comma delimited format used in spreadsheet applications
http://www.bom.gov.au/fwo/IDD60801/IDD60801.94125.axf

JavaScript Object Notation format (JSON) in row-major order
http://www.bom.gov.au/fwo/IDD60801/IDD60801.94125.json